createdAt,value
2022-11-01T16:45:05.559Z,54.88
2022-11-01T16:49:47.291Z,55.1
2022-11-01T16:54:38.495Z,55.36
2022-11-01T16:59:30.770Z,55.48
2022-11-01T17:04:23.282Z,55.6
2022-11-01T17:09:17.981Z,55.74
2022-11-01T17:14:09.998Z,55.79
2022-11-01T17:19:02.643Z,55.86
2022-11-01T17:23:55.203Z,55.89
2022-11-01T17:28:49.575Z,56.04
2022-11-01T17:33:40.319Z,56
2022-11-01T17:38:32.915Z,56.08
2022-11-01T17:43:25.431Z,56.07
2022-11-01T17:48:17.943Z,56.1
2022-11-01T17:53:10.462Z,56.24
2022-11-01T17:58:03.425Z,56.25
2022-11-01T18:02:55.859Z,56.18
2022-11-01T18:07:48.268Z,56.3
2022-11-01T18:12:40.793Z,56.44
2022-11-01T18:17:33.242Z,56.45
2022-11-01T18:22:25.916Z,56.45
2022-11-01T18:27:18.211Z,56.42
2022-11-01T18:32:11.025Z,56.56
2022-11-01T18:37:03.550Z,56.5
2022-11-01T18:46:48.066Z,56.48
2022-11-01T18:56:33.073Z,56.56
2022-11-01T19:01:25.993Z,56.58
2022-11-01T19:06:18.168Z,56.63
2022-11-01T19:11:10.687Z,56.7
2022-11-01T19:16:03.533Z,56.79
2022-11-01T19:20:56.019Z,56.82
2022-11-01T19:25:48.709Z,56.82
2022-11-01T19:30:41.257Z,56.88
2022-11-01T19:35:33.749Z,56.85
2022-11-01T19:40:27.795Z,56.98
2022-11-01T19:45:18.944Z,56.77
2022-11-01T19:50:11.371Z,56.84
2022-11-01T19:55:03.912Z,56.79
2022-11-01T19:59:56.530Z,56.77
2022-11-01T20:04:50.145Z,56.83
2022-11-01T20:09:41.760Z,56.84
2022-11-01T20:14:34.379Z,56.88
2022-11-01T20:19:26.960Z,56.75
2022-11-01T20:24:19.821Z,56.82
2022-11-01T20:29:12.445Z,56.84
2022-11-01T20:34:05.186Z,56.81
2022-11-01T20:38:57.658Z,56.83
2022-11-01T20:43:50.429Z,56.87
2022-11-01T20:48:43.984Z,56.86
2022-11-01T20:53:35.788Z,56.93
2022-11-01T20:58:28.318Z,56.87
2022-11-01T21:03:20.839Z,56.88
2022-11-01T21:08:13.403Z,56.79
2022-11-01T21:13:06.295Z,56.61
2022-11-01T21:17:58.411Z,56.46
2022-11-01T21:22:51.055Z,56.39
2022-11-01T21:27:43.815Z,56.44
2022-11-01T21:32:36.981Z,56.35
2022-11-01T21:37:28.730Z,56.36
2022-11-01T21:42:21.209Z,56.34
2022-11-01T21:47:14.011Z,56.31
2022-11-01T21:52:06.536Z,56.32
2022-11-01T21:56:58.863Z,56.33
2022-11-01T22:01:51.899Z,56.1
2022-11-01T22:06:44.096Z,55.93
2022-11-01T22:11:36.734Z,55.85
2022-11-01T22:16:29.160Z,55.94
2022-11-01T22:21:21.494Z,55.92
2022-11-01T22:26:14.098Z,56.01
2022-11-01T22:31:06.571Z,56.02
2022-11-01T22:35:59.140Z,55.98
2022-11-01T22:40:51.663Z,55.89
2022-11-01T22:45:44.236Z,55.96
2022-11-01T22:50:36.801Z,56.05
2022-11-01T22:55:29.311Z,56.07
2022-11-01T23:00:21.799Z,56.03
2022-11-01T23:05:14.593Z,55.93
2022-11-01T23:10:07.088Z,55.96
2022-11-01T23:14:59.645Z,55.96
2022-11-01T23:19:52.268Z,55.87
2022-11-01T23:24:44.642Z,55.87
2022-11-01T23:29:37.119Z,55.83
2022-11-01T23:34:29.647Z,55.8
2022-11-01T23:39:22.057Z,55.87
2022-11-01T23:44:14.760Z,55.88
2022-11-01T23:49:07.146Z,55.84
2022-11-01T23:53:59.699Z,55.81
2022-11-01T23:58:51.989Z,55.81
